Time;durP1;ratioP1;P1;durP2;ratioP2;P2;SDS_P1;SDS_P2;PMS_P1;PMS_P2;Temp;Humidity;BMP_temperature;BMP_pressure;BME280_temperature;BME280_humidity;BME280_pressure;Samples;Min_cycle;Max_cycle;Signal;HPM_P1;HPM_P2
2022/09/02 00:04:02;;;;;;;8.40;2.30;;;;;;;19.34;40.65;101255.31;5111179;27;20504;-55
2022/09/02 00:06:30;;;;;;;13.02;2.47;;;;;;;19.34;40.79;101256.13;5109884;28;20405;-56
2022/09/02 00:08:57;;;;;;;6.63;2.20;;;;;;;19.23;40.55;101250.47;5111247;28;20078;-56
2022/09/02 00:11:28;;;;;;;7.18;2.20;;;;;;;19.17;40.51;101244.88;5111292;28;20048;-56
2022/09/02 00:13:56;;;;;;;10.00;2.30;;;;;;;19.27;41.19;101247.19;5111192;28;20043;-56
2022/09/02 00:16:23;;;;;;;7.03;2.50;;;;;;;19.27;40.91;101244.50;5111109;28;20044;-56
2022/09/02 00:18:52;;;;;;;7.55;2.63;;;;;;;19.29;40.65;101242.44;5111189;28;20113;-56
2022/09/02 00:21:20;;;;;;;11.55;2.28;;;;;;;19.28;40.82;101246.19;5111053;28;20090;-55
2022/09/02 00:23:48;;;;;;;7.15;2.40;;;;;;;19.27;40.82;101246.38;5054816;28;20109;-56
2022/09/02 00:26:16;;;;;;;6.20;2.17;;;;;;;19.30;41.11;101244.13;5110931;28;20054;-56
2022/09/02 00:28:43;;;;;;;9.18;2.50;;;;;;;19.24;40.79;101239.53;5110454;28;20067;-56
2022/09/02 00:31:10;;;;;;;6.80;2.30;;;;;;;19.25;40.97;101249.25;5110178;28;20048;-56
2022/09/02 00:33:37;;;;;;;6.60;2.10;;;;;;;19.22;41.04;101238.91;5109708;28;20044;-56
2022/09/02 00:36:05;;;;;;;9.00;2.30;;;;;;;19.30;41.06;101240.59;5110366;28;20036;-56
2022/09/02 00:38:34;;;;;;;8.30;2.55;;;;;;;19.28;41.25;101237.25;5110602;28;20123;-56
2022/09/02 00:41:04;;;;;;;6.32;2.20;;;;;;;19.26;41.21;101234.78;5110805;28;20093;-56
2022/09/02 00:43:45;;;;;;;7.85;2.58;;;;;;;19.33;41.51;101237.50;5110482;28;20035;-56
2022/09/02 00:46:16;;;;;;;8.57;2.63;;;;;;;19.27;41.49;101232.94;5110661;28;20048;-56
2022/09/02 00:48:52;;;;;;;10.85;2.10;;;;;;;19.13;41.73;101232.03;5109359;28;20136;-56
2022/09/02 00:51:19;;;;;;;8.40;2.30;;;;;;;19.12;41.72;101236.56;5110274;28;20046;-56
2022/09/02 00:53:47;;;;;;;9.82;2.20;;;;;;;19.09;42.23;101231.59;5110090;28;20044;-56
2022/09/02 00:56:21;;;;;;;6.88;2.20;;;;;;;19.07;42.03;101232.84;5110489;28;20075;-57
2022/09/02 00:58:50;;;;;;;6.60;2.30;;;;;;;18.99;41.94;101225.72;5110351;28;20047;-57
2022/09/02 01:01:18;;;;;;;12.13;2.45;;;;;;;18.96;42.50;101229.66;5109375;28;20070;-57
2022/09/02 01:03:44;;;;;;;6.45;2.22;;;;;;;18.93;42.46;101223.84;5109848;28;20047;-57
2022/09/02 01:06:14;;;;;;;6.80;2.30;;;;;;;18.98;42.16;101224.91;5108268;28;20051;-57
2022/09/02 01:08:46;;;;;;;11.90;2.53;;;;;;;18.84;42.57;101228.53;5110225;28;20071;-57
2022/09/02 01:11:15;;;;;;;6.43;2.45;;;;;;;18.92;42.83;101225.72;5110129;28;20058;-56
2022/09/02 01:13:42;;;;;;;7.22;2.40;;;;;;;18.89;42.51;101220.72;5104329;28;20385;-57
2022/09/02 01:16:22;;;;;;;6.25;2.22;;;;;;;18.90;42.62;101218.84;5096622;28;20051;-56
2022/09/02 01:18:52;;;;;;;10.20;2.22;;;;;;;18.92;43.17;101220.34;5095174;28;20062;-56
2022/09/02 01:21:21;;;;;;;9.65;2.40;;;;;;;18.95;42.83;101222.59;5096166;28;20044;-57
2022/09/02 01:23:49;;;;;;;7.47;2.08;;;;;;;18.87;42.59;101222.78;5058000;28;20037;-55
2022/09/02 01:26:16;;;;;;;7.93;2.20;;;;;;;18.85;42.74;101219.47;5096070;28;20032;-56
2022/09/02 01:28:43;;;;;;;7.60;2.38;;;;;;;18.93;42.78;101223.84;5095612;28;20405;-55
2022/09/02 01:31:10;;;;;;;7.03;2.30;;;;;;;18.87;42.61;101220.09;5096008;28;20040;-56
2022/09/02 01:33:38;;;;;;;6.60;2.22;;;;;;;18.89;42.98;101215.34;5095575;28;20493;-56
2022/09/02 01:36:04;;;;;;;10.90;2.40;;;;;;;18.98;43.05;101221.41;5095929;28;20048;-55
2022/09/02 01:38:32;;;;;;;6.50;2.22;;;;;;;18.99;43.12;101210.44;5095697;28;20394;-57
2022/09/02 01:40:59;;;;;;;5.93;2.10;;;;;;;18.93;42.88;101215.78;5095967;28;20078;-57
2022/09/02 01:43:28;;;;;;;9.48;2.50;;;;;;;18.88;43.00;101207.47;5095884;28;20047;-57
2022/09/02 01:45:56;;;;;;;5.55;2.20;;;;;;;18.93;43.53;101207.72;5095907;28;20044;-56
2022/09/02 01:48:27;;;;;;;9.05;2.72;;;;;;;18.91;43.03;101196.34;5095702;28;20047;-56
2022/09/02 01:50:57;;;;;;;5.28;2.20;;;;;;;18.90;42.98;101202.72;5095820;28;20044;-56
2022/09/02 01:53:24;;;;;;;6.70;2.28;;;;;;;18.88;43.13;101207.47;5095779;28;20402;-57
2022/09/02 01:55:52;;;;;;;10.13;2.38;;;;;;;18.90;42.96;101200.91;5095609;28;20048;-57
2022/09/02 01:58:19;;;;;;;6.35;2.40;;;;;;;18.86;42.91;101201.47;5094448;28;20048;-57
2022/09/02 02:00:46;;;;;;;10.30;2.38;;;;;;;18.84;43.25;101198.97;5095567;28;20390;-57
2022/09/02 02:03:14;;;;;;;7.47;2.35;;;;;;;18.89;42.93;101201.91;5094902;28;20536;-57
2022/09/02 02:05:41;;;;;;;6.65;2.38;;;;;;;18.91;43.39;101199.03;5095239;28;20044;-57
2022/09/02 02:08:08;;;;;;;6.38;2.22;;;;;;;18.80;43.06;101203.88;5095362;28;20044;-55
2022/09/02 02:10:35;;;;;;;6.80;2.35;;;;;;;18.80;43.13;101203.06;5095141;28;20036;-55
2022/09/02 02:13:02;;;;;;;8.13;2.33;;;;;;;18.77;43.39;101203.44;5094884;28;20397;-55
2022/09/02 02:15:31;;;;;;;7.05;2.20;;;;;;;18.78;43.15;101203.25;5094246;28;20048;-54
2022/09/02 02:17:57;;;;;;;5.88;2.13;;;;;;;18.85;43.22;101205.19;5095107;28;20134;-56
2022/09/02 02:20:25;;;;;;;9.63;2.40;;;;;;;18.80;43.00;101200.38;5095266;28;20044;-55
2022/09/02 02:22:53;;;;;;;6.10;2.28;;;;;;;18.75;43.51;101205.50;5057627;28;20040;-55
2022/09/02 02:25:20;;;;;;;7.72;2.30;;;;;;;18.72;43.19;101201.38;5093478;28;20574;-57
2022/09/02 02:27:51;;;;;;;7.47;2.40;;;;;;;18.71;43.50;101196.19;5095041;28;20052;-55
2022/09/02 02:30:18;;;;;;;6.13;2.45;;;;;;;18.75;43.26;101200.94;5094699;28;20516;-57
2022/09/02 02:32:46;;;;;;;7.65;2.47;;;;;;;18.82;43.79;101206.41;5094910;28;20044;-56
2022/09/02 02:35:17;;;;;;;10.95;2.40;;;;;;;18.88;43.51;101199.41;5094400;28;20097;-56
2022/09/02 02:37:48;;;;;;;6.43;2.30;;;;;;;18.79;43.88;101199.56;5094744;28;20356;-56
2022/09/02 02:40:20;;;;;;;6.47;2.20;;;;;;;18.84;43.53;101203.53;5094756;28;20052;-57
2022/09/02 02:42:52;;;;;;;6.60;2.20;;;;;;;18.87;43.24;101203.13;5094475;28;20037;-56
2022/09/02 02:45:22;;;;;;;5.82;2.30;;;;;;;18.83;43.66;101197.34;5094478;28;20046;-56
2022/09/02 02:47:49;;;;;;;7.75;2.40;;;;;;;18.83;44.18;101205.41;5094308;28;20393;-57
2022/09/02 02:50:19;;;;;;;6.10;2.03;;;;;;;18.84;44.13;101201.66;5094538;28;20490;-56
2022/09/02 02:52:47;;;;;;;8.52;2.30;;;;;;;18.80;43.61;101195.81;5094322;28;20440;-56
2022/09/02 02:55:16;;;;;;;6.80;2.20;;;;;;;18.73;43.70;101200.31;5094492;28;20539;-56
2022/09/02 02:57:43;;;;;;;7.75;2.10;;;;;;;18.77;43.74;101198.06;5094356;28;20052;-56
2022/09/02 03:00:24;;;;;;;10.45;2.30;;;;;;;18.69;43.79;101200.94;5094421;28;20512;-57
2022/09/02 03:02:56;;;;;;;7.15;2.38;;;;;;;18.62;43.71;101195.50;5094042;28;20048;-56
2022/09/02 03:05:24;;;;;;;5.80;2.40;;;;;;;18.68;44.51;101196.56;5092426;28;20040;-56
2022/09/02 03:07:51;;;;;;;8.57;2.38;;;;;;;18.67;44.07;101197.59;5108363;28;20047;-56
2022/09/02 03:10:19;;;;;;;8.82;2.20;;;;;;;18.70;44.10;101194.50;5114374;28;20035;-55
2022/09/02 03:12:46;;;;;;;5.57;2.10;;;;;;;18.67;44.22;101197.59;5113909;27;20477;-56
2022/09/02 03:15:17;;;;;;;8.68;2.38;;;;;;;18.67;43.53;101190.38;5114355;28;20515;-56
2022/09/02 03:17:46;;;;;;;9.23;2.28;;;;;;;18.58;44.56;101188.88;5114314;28;20081;-56
2022/09/02 03:20:15;;;;;;;10.32;2.47;;;;;;;18.57;44.21;101192.56;5114282;28;20085;-55
2022/09/02 03:22:47;;;;;;;8.20;2.35;;;;;;;18.53;44.46;101191.31;5087118;28;20040;-56
2022/09/02 03:25:19;;;;;;;5.75;2.25;;;;;;;18.47;44.84;101182.19;5106910;28;20067;-56
2022/09/02 03:27:47;;;;;;;9.35;2.38;;;;;;;18.47;44.66;101182.19;5114350;28;20047;-57
2022/09/02 03:30:19;;;;;;;10.15;2.55;;;;;;;18.49;44.88;101195.41;5113540;28;20131;-57
2022/09/02 03:32:45;;;;;;;7.53;2.10;;;;;;;18.41;44.84;101191.84;5113981;28;20549;-57
2022/09/02 03:35:17;;;;;;;8.80;3.17;;;;;;;18.40;45.25;101195.53;5113965;28;20510;-56
2022/09/02 03:37:45;;;;;;;9.82;2.65;;;;;;;18.35;45.00;101197.16;5111876;28;20066;-56
2022/09/02 03:40:16;;;;;;;8.43;2.45;;;;;;;18.31;45.22;101190.53;5093543;28;20036;-57
2022/09/02 03:42:43;;;;;;;8.13;2.53;;;;;;;18.32;45.18;101192.16;5093698;28;20512;-56
2022/09/02 03:45:13;;;;;;;8.80;2.42;;;;;;;18.21;45.55;101189.00;5093372;28;20412;-57
2022/09/02 03:47:49;;;;;;;8.15;2.55;;;;;;;18.27;45.87;101187.38;5093636;28;20062;-56
2022/09/02 03:50:20;;;;;;;8.45;2.53;;;;;;;18.18;45.81;101186.69;5093569;28;20048;-55
2022/09/02 03:52:48;;;;;;;9.43;2.30;;;;;;;18.19;45.85;101184.81;5093660;28;20054;-56
2022/09/02 03:55:17;;;;;;;11.55;2.13;;;;;;;18.15;45.62;101178.19;5092454;28;20044;-56
2022/09/02 03:57:44;;;;;;;6.00;2.50;;;;;;;18.12;45.65;101178.56;5093040;28;20046;-57
2022/09/02 04:00:14;;;;;;;7.50;2.40;;;;;;;18.11;45.79;101182.28;5093435;28;20040;-56
2022/09/02 04:02:54;;;;;;;6.35;2.47;;;;;;;18.04;45.83;101179.53;5111124;27;20372;-57
2022/09/02 04:05:21;;;;;;;9.05;2.50;;;;;;;17.99;45.61;101181.97;5110808;28;20048;-55
2022/09/02 04:07:51;;;;;;;7.35;2.53;;;;;;;17.98;45.90;101175.78;5111279;28;20063;-58
2022/09/02 04:10:20;;;;;;;6.45;2.53;;;;;;;18.03;45.51;101177.91;5110201;28;20053;-57
2022/09/02 04:12:49;;;;;;;10.27;2.70;;;;;;;18.08;46.30;101174.63;5110825;28;20085;-57
2022/09/02 04:15:17;;;;;;;10.38;2.30;;;;;;;17.92;45.74;101173.03;5111147;28;20047;-57
2022/09/02 04:21:51;;;;;;;7.18;2.50;;;;;;;18.00;46.03;101178.28;5110541;28;20044;-57
2022/09/02 04:24:18;;;;;;;8.88;2.50;;;;;;;18.06;45.61;101177.50;4979156;28;20032;-57
2022/09/02 04:26:47;;;;;;;9.27;2.50;;;;;;;18.00;45.72;101175.59;5110670;28;20562;-57
2022/09/02 04:29:17;;;;;;;6.72;2.30;;;;;;;18.02;45.51;101177.03;5110305;28;20044;-56
2022/09/02 04:31:44;;;;;;;9.52;2.58;;;;;;;18.02;46.07;101178.91;5108821;28;20050;-56
2022/09/02 04:34:10;;;;;;;9.15;2.28;;;;;;;18.08;45.43;101172.78;5110397;28;20105;-57
2022/09/02 04:36:39;;;;;;;9.10;2.40;;;;;;;18.03;46.04;101170.66;5110860;28;20048;-56
2022/09/02 04:39:08;;;;;;;7.55;2.45;;;;;;;18.08;46.03;101171.94;5110273;28;20536;-57
2022/09/02 04:41:35;;;;;;;8.68;2.50;;;;;;;18.06;45.87;101177.50;5109226;28;20130;-57
2022/09/02 04:44:06;;;;;;;8.38;2.67;;;;;;;17.93;45.86;101172.00;5110491;28;20074;-57
2022/09/02 04:46:39;;;;;;;9.55;2.53;;;;;;;17.95;46.07;101178.00;5110279;28;20428;-56
2022/09/02 04:49:10;;;;;;;12.23;2.70;;;;;;;17.97;46.37;101174.13;5110410;28;20068;-56
2022/09/02 04:51:39;;;;;;;6.88;2.40;;;;;;;18.00;46.26;101170.22;5110531;28;20040;-55
2022/09/02 04:54:08;;;;;;;7.45;2.50;;;;;;;17.96;46.26;101168.94;5108852;28;20093;-57
2022/09/02 04:56:37;;;;;;;8.77;2.67;;;;;;;17.99;46.15;101173.91;5109162;28;20046;-56
2022/09/02 04:59:06;;;;;;;13.45;2.83;;;;;;;17.97;46.42;101173.28;5109501;28;20484;-57
2022/09/02 05:01:35;;;;;;;9.63;2.60;;;;;;;17.98;46.48;101172.28;5109062;28;20079;-56
2022/09/02 05:04:08;;;;;;;8.30;3.15;;;;;;;17.87;46.48;101173.63;5109325;28;20131;-56
2022/09/02 05:06:39;;;;;;;10.23;2.97;;;;;;;17.96;46.48;101174.31;5109971;28;20402;-57
2022/09/02 05:09:10;;;;;;;10.38;2.67;;;;;;;17.95;46.18;101176.16;5129122;28;20051;-57
2022/09/02 05:11:38;;;;;;;9.23;2.95;;;;;;;17.97;45.90;101173.28;5129971;27;20063;-57
2022/09/02 05:14:06;;;;;;;9.70;2.65;;;;;;;17.90;46.45;101173.25;5116736;28;20039;-57
2022/09/02 05:16:38;;;;;;;7.97;2.85;;;;;;;17.85;46.08;101175.66;5115492;28;20047;-56
2022/09/02 05:19:10;;;;;;;6.88;2.40;;;;;;;17.88;46.73;101175.25;5096248;28;20036;-55
2022/09/02 05:21:42;;;;;;;6.85;2.70;;;;;;;17.99;46.29;101177.44;5096212;28;20044;-56
2022/09/02 05:24:13;;;;;;;9.05;2.67;;;;;;;17.98;46.92;101173.09;5058373;28;20127;-56
2022/09/02 05:26:41;;;;;;;8.38;2.50;;;;;;;18.02;46.12;101173.53;5095943;28;20044;-56
2022/09/02 05:29:10;;;;;;;8.32;2.60;;;;;;;17.97;45.83;101173.28;5095737;28;20370;-57
2022/09/02 05:31:40;;;;;;;7.18;2.90;;;;;;;18.03;46.41;101167.97;5095592;28;20139;-56
2022/09/02 05:34:10;;;;;;;13.30;2.90;;;;;;;18.10;46.06;101162.69;5095592;28;20453;-56
2022/09/02 05:36:37;;;;;;;7.38;2.60;;;;;;;18.08;46.00;101170.09;5095642;28;20049;-57
2022/09/02 05:39:05;;;;;;;11.20;2.83;;;;;;;18.09;46.17;101168.25;5095530;28;20131;-57
2022/09/02 05:41:34;;;;;;;10.02;2.67;;;;;;;18.10;46.05;101173.41;5094306;28;20071;-56
2022/09/02 05:44:04;;;;;;;12.48;2.90;;;;;;;18.12;45.75;101178.56;5095218;28;20512;-56
2022/09/02 05:46:34;;;;;;;9.85;2.83;;;;;;;18.13;46.27;101174.88;5095514;28;20082;-55
2022/09/02 05:49:06;;;;;;;10.45;2.95;;;;;;;18.14;46.33;101172.00;5093794;28;20169;-56
2022/09/02 05:51:43;;;;;;;7.43;2.67;;;;;;;18.22;46.48;101176.41;5094330;28;20036;-56
2022/09/02 05:54:18;;;;;;;8.90;3.42;;;;;;;18.27;45.41;101173.97;5095037;28;20047;-56
2022/09/02 05:56:50;;;;;;;10.07;2.65;;;;;;;18.34;45.26;101172.16;5094837;28;20064;-56
2022/09/02 05:59:19;;;;;;;6.85;2.70;;;;;;;18.39;45.66;101177.78;5095246;28;20486;-58
2022/09/02 06:01:47;;;;;;;11.73;3.30;;;;;;;18.46;45.67;101171.63;5094825;28;20439;-57
2022/09/02 06:04:16;;;;;;;13.10;3.50;;;;;;;18.52;45.06;101176.19;5094806;28;20138;-56
2022/09/02 06:06:45;;;;;;;10.30;3.00;;;;;;;18.57;45.06;101168.38;5095087;28;20157;-57
2022/09/02 06:09:18;;;;;;;8.40;2.63;;;;;;;18.71;45.32;101172.00;5095259;28;20461;-58
2022/09/02 06:11:48;;;;;;;9.77;2.42;;;;;;;18.65;44.96;101170.13;5094046;28;20551;-58
2022/09/02 06:14:22;;;;;;;11.00;2.50;;;;;;;18.68;44.56;101170.53;5095162;28;20051;-58
2022/09/02 06:16:51;;;;;;;10.20;2.50;;;;;;;18.78;45.22;101168.31;5095010;28;20047;-58
2022/09/02 06:19:29;;;;;;;12.57;2.80;;;;;;;18.75;45.18;101162.50;5095104;28;20056;-58
2022/09/02 06:21:58;;;;;;;7.13;2.50;;;;;;;18.80;44.49;101168.94;5093264;28;20085;-58
2022/09/02 06:24:26;;;;;;;11.02;2.80;;;;;;;18.88;44.85;101170.69;5060087;28;20052;-57
2022/09/02 06:26:53;;;;;;;10.18;2.78;;;;;;;18.99;45.00;101171.97;5094817;28;20076;-58
2022/09/02 06:29:24;;;;;;;12.23;3.42;;;;;;;19.04;44.55;101172.19;5093493;28;20044;-58
2022/09/02 06:31:52;;;;;;;16.95;3.00;;;;;;;19.05;44.44;101176.56;5094265;28;20102;-58
2022/09/02 06:34:24;;;;;;;13.55;3.03;;;;;;;19.11;44.64;101169.56;5076766;28;20075;-58
2022/09/02 06:36:51;;;;;;;12.52;3.00;;;;;;;19.22;44.50;101170.84;5087452;28;20067;-58
2022/09/02 06:39:21;;;;;;;6.78;2.85;;;;;;;19.33;43.67;101175.63;5088852;28;20044;-51
2022/09/02 06:41:49;;;;;;;7.95;2.78;;;;;;;19.35;43.89;101178.94;5075052;28;20068;-53
2022/09/02 06:44:20;;;;;;;12.13;3.05;;;;;;;19.31;44.36;101173.16;5089741;28;20040;-52
2022/09/02 06:46:54;;;;;;;8.02;2.90;;;;;;;19.29;44.04;101172.53;5100378;28;20484;-48
2022/09/02 06:49:23;;;;;;;17.38;3.08;;;;;;;19.30;44.02;101171.50;5090204;28;20028;-49
2022/09/02 06:51:52;;;;;;;7.90;2.83;;;;;;;19.35;43.80;101170.88;5094129;28;20035;-53
2022/09/02 06:54:24;;;;;;;11.00;2.65;;;;;;;19.43;44.11;101167.19;5099821;28;20032;-52
2022/09/02 06:57:02;;;;;;;11.68;3.00;;;;;;;19.49;44.11;101172.59;5072134;27;20039;-51
2022/09/02 06:59:30;;;;;;;13.88;3.80;;;;;;;19.51;44.18;101175.06;5095561;28;20055;-51
2022/09/02 07:01:57;;;;;;;12.50;3.22;;;;;;;19.50;43.78;101174.25;5093512;28;20047;-51
2022/09/02 07:07:16;;;;;;;10.85;2.72;;;;;;;19.67;43.44;101169.31;5094398;28;20043;-52
2022/09/02 07:09:52;;;;;;;11.50;3.35;;;;;;;19.68;43.51;101173.69;5083445;28;20101;-49
2022/09/02 07:12:18;;;;;;;9.18;2.80;;;;;;;19.68;43.62;101172.84;5084810;28;20126;-49
2022/09/02 07:14:50;;;;;;;10.82;2.95;;;;;;;19.72;44.21;101174.09;5089903;28;20040;-52
2022/09/02 07:17:23;;;;;;;9.15;2.90;;;;;;;19.68;43.49;101167.44;5090138;28;20051;-48
2022/09/02 07:19:58;;;;;;;9.02;3.00;;;;;;;19.67;43.34;101169.31;5108702;28;20108;-52
2022/09/02 07:22:27;;;;;;;8.87;2.90;;;;;;;19.73;43.70;101167.72;5097036;28;20043;-53
2022/09/02 07:24:54;;;;;;;9.60;3.22;;;;;;;19.88;43.49;101160.28;5059028;28;20042;-50
2022/09/02 07:27:23;;;;;;;10.18;3.03;;;;;;;19.95;43.28;101160.28;5106255;28;20054;-51
2022/09/02 07:29:55;;;;;;;9.73;3.20;;;;;;;19.79;43.77;101158.81;5071011;28;20047;-50
2022/09/02 07:32:22;;;;;;;10.75;3.03;;;;;;;19.73;43.84;101162.31;5098539;28;20067;-53
2022/09/02 07:34:48;;;;;;;20.63;3.75;;;;;;;19.78;44.02;101153.66;5101616;28;20067;-49
2022/09/02 07:37:16;;;;;;;13.15;3.47;;;;;;;19.97;43.87;101152.81;5102202;28;20050;-52
2022/09/02 07:39:44;;;;;;;11.80;2.90;;;;;;;19.95;43.73;101152.19;5093773;28;20844;-51
2022/09/02 07:42:13;;;;;;;9.65;3.08;;;;;;;19.86;43.47;101154.25;5091563;28;20050;-52
2022/09/02 07:44:40;;;;;;;15.75;3.45;;;;;;;20.14;43.73;101140.63;5082359;28;20416;-53
2022/09/02 07:47:08;;;;;;;13.05;3.20;;;;;;;20.23;43.65;101145.78;5088487;28;20074;-51
2022/09/02 07:49:38;;;;;;;10.65;2.88;;;;;;;20.27;43.95;101141.66;5082669;28;20052;-52
2022/09/02 07:52:25;;;;;;;14.48;3.30;;;;;;;20.34;43.70;101137.09;5087225;28;20031;-50
2022/09/02 07:54:53;;;;;;;9.63;2.97;;;;;;;20.41;44.04;101140.59;5102768;28;20050;-50
2022/09/02 07:57:20;;;;;;;10.40;3.45;;;;;;;20.64;42.83;101145.53;5085729;28;20048;-51
2022/09/02 07:59:47;;;;;;;10.88;3.40;;;;;;;20.61;42.85;101145.13;5076538;28;20052;-53
2022/09/02 08:02:16;;;;;;;12.38;3.30;;;;;;;20.50;42.58;101147.41;5088181;28;20070;-51
2022/09/02 08:04:44;;;;;;;19.23;3.47;;;;;;;20.51;43.18;101149.06;5076349;28;20516;-49
2022/09/02 08:07:11;;;;;;;9.32;3.15;;;;;;;20.60;42.96;101146.16;5099013;28;20043;-50
2022/09/02 08:09:38;;;;;;;9.82;3.85;;;;;;;20.61;42.99;101145.13;5093340;28;20063;-49
2022/09/02 08:12:06;;;;;;;9.63;3.88;;;;;;;20.71;42.74;101145.53;5083391;28;20047;-50
2022/09/02 08:14:32;;;;;;;15.23;3.85;;;;;;;20.83;42.18;101145.69;5086440;28;20489;-53
2022/09/02 08:16:59;;;;;;;9.52;3.42;;;;;;;20.73;42.56;101140.75;5089710;28;20051;-52
2022/09/02 08:19:26;;;;;;;11.38;4.47;;;;;;;20.82;42.84;101138.66;5094457;28;20062;-52
2022/09/02 08:21:54;;;;;;;11.52;3.78;;;;;;;20.74;42.68;101142.44;5092986;28;20131;-50
2022/09/02 08:24:20;;;;;;;11.15;3.83;;;;;;;20.72;42.95;101147.19;5057790;28;20052;-49
2022/09/02 08:26:47;;;;;;;17.75;5.53;;;;;;;20.87;42.99;101153.16;5081603;28;20051;-51
2022/09/02 08:29:14;;;;;;;8.20;3.40;;;;;;;21.08;42.21;101148.50;5079413;28;20394;-53
2022/09/02 08:31:41;;;;;;;13.00;3.90;;;;;;;;;;5071797;28;20051;-53
2022/09/02 08:34:08;;;;;;;17.98;5.18;;;;;;;21.29;42.00;101134.72;5097362;28;20052;-49
2022/09/02 08:36:35;;;;;;;13.57;3.67;;;;;;;21.49;40.47;101133.00;5094626;28;20108;-53
2022/09/02 08:39:03;;;;;;;9.68;3.70;;;;;;;21.63;40.98;101137.28;5090515;28;20049;-51
2022/09/02 08:41:41;;;;;;;11.32;3.85;;;;;;;21.84;40.95;101147.69;5096090;28;20062;-52
2022/09/02 08:44:10;;;;;;;10.98;3.35;;;;;;;22.00;40.14;101137.41;5077098;28;20075;-52
2022/09/02 08:46:37;;;;;;;12.88;3.83;;;;;;;22.15;39.57;101129.78;5096887;28;20457;-51
2022/09/02 08:49:10;;;;;;;14.40;4.20;;;;;;;22.33;40.07;101123.63;5105422;28;20055;-51
2022/09/02 08:54:25;;;;;;;10.93;3.88;;;;;;;22.58;39.23;101122.75;5091020;27;20374;-50
2022/09/02 08:56:52;;;;;;;10.82;3.53;;;;;;;22.70;38.86;101122.84;5119230;28;20485;-53
2022/09/02 08:59:22;;;;;;;10.50;3.70;;;;;;;22.58;38.45;101125.47;5104897;28;20040;-53
2022/09/02 09:02:00;;;;;;;11.82;3.13;;;;;;;22.72;38.28;101129.69;5093313;28;20047;-52
2022/09/02 09:04:54;;;;;;;13.48;3.10;;;;;;;22.86;38.66;101121.41;5106160;28;20501;-50
2022/09/02 09:07:51;;;;;;;12.25;3.60;;;;;;;22.88;38.62;101125.53;5110174;28;20405;-51
2022/09/02 09:10:43;;;;;;;11.40;3.35;;;;;;;22.89;38.43;101129.91;5110998;28;20039;-52
2022/09/02 09:16:35;;;;;;;12.75;3.75;;;;;;;23.34;37.92;101118.72;5054896;28;20418;-49
2022/09/02 09:19:16;;;;;;;9.27;3.50;;;;;;;23.49;37.76;101125.59;5059727;28;20052;-48
2022/09/02 09:21:43;;;;;;;13.00;3.28;;;;;;;23.37;37.44;101112.84;5078076;28;20052;-49
2022/09/02 09:24:31;;;;;;;10.98;3.53;;;;;;;23.49;37.25;101104.75;5040850;28;20060;-48
2022/09/02 09:26:58;;;;;;;10.90;3.50;;;;;;;24.02;36.75;101096.88;5051457;28;20048;-49
2022/09/02 09:29:25;;;;;;;11.80;3.40;;;;;;;24.31;35.45;101093.22;5063065;28;20098;-50
2022/09/02 09:31:56;;;;;;;16.70;3.80;;;;;;;25.31;34.23;101095.00;5045212;28;20164;-49
2022/09/02 09:34:23;;;;;;;12.05;3.25;;;;;;;26.65;32.55;101093.31;5076604;28;20052;-50
2022/09/02 09:36:53;;;;;;;13.50;3.70;;;;;;;27.88;29.27;101091.00;5075344;28;20040;-50
2022/09/02 09:39:31;;;;;;;13.43;3.60;;;;;;;29.10;27.85;101079.88;5059883;28;20057;-50
2022/09/02 09:42:12;;;;;;;16.25;3.45;;;;;;;29.35;27.06;101088.44;5047711;28;20073;-50
2022/09/02 09:44:44;;;;;;;11.40;3.63;;;;;;;29.59;26.09;101085.97;5060798;28;20063;-50
2022/09/02 09:47:18;;;;;;;19.38;3.40;;;;;;;30.23;26.23;101077.16;5067991;28;20152;-50
2022/09/02 09:49:49;;;;;;;14.00;3.50;;;;;;;29.84;25.94;101080.50;5068595;28;20411;-51
2022/09/02 09:52:27;;;;;;;8.13;3.17;;;;;;;30.51;25.71;101080.38;5058777;28;20052;-49
2022/09/02 09:55:17;;;;;;;12.27;3.97;;;;;;;30.43;25.98;101073.56;5076591;28;20136;-55
2022/09/02 09:57:46;;;;;;;10.82;3.28;;;;;;;30.11;26.06;101076.66;5064238;28;20498;-53
2022/09/02 10:00:28;;;;;;;13.48;2.97;;;;;;;29.78;25.84;101073.44;5084928;28;20093;-50
2022/09/02 10:02:59;;;;;;;17.73;3.78;;;;;;;29.96;28.98;101073.94;5049230;28;20120;-53
2022/09/02 10:05:36;;;;;;;18.88;3.13;;;;;;;28.75;27.33;101069.69;5066272;28;20099;-50
2022/09/02 10:08:20;;;;;;;9.88;3.15;;;;;;;28.23;28.90;101071.34;5069645;28;20044;-50
2022/09/02 10:13:36;;;;;;;8.70;2.67;;;;;;;28.10;27.29;101080.00;5074864;28;20469;-48
2022/09/02 10:16:30;;;;;;;10.48;3.00;;;;;;;28.00;27.39;101078.03;5085411;28;20116;-51
2022/09/02 10:19:17;;;;;;;11.20;3.10;;;;;;;27.18;27.84;101069.13;5069198;28;20052;-49
2022/09/02 10:27:13;;;;;;;10.00;2.85;;;;;;;27.28;26.73;101071.16;5108174;27;20366;-52
2022/09/02 10:29:54;;;;;;;10.48;2.63;;;;;;;27.48;27.14;101060.44;5103476;28;20105;-50
2022/09/02 10:32:29;;;;;;;11.68;2.83;;;;;;;27.49;26.80;101056.63;5097153;28;20055;-50
2022/09/02 10:35:27;;;;;;;12.07;3.05;;;;;;;27.49;27.02;101058.56;5089321;28;20043;-49
2022/09/02 10:38:28;;;;;;;10.13;3.10;;;;;;;27.78;26.51;101056.31;5107980;28;20039;-49
2022/09/02 10:41:07;;;;;;;11.83;2.73;;;;;;;28.14;25.87;101053.84;5109506;28;20036;-50
2022/09/02 10:46:49;;;;;;;12.45;4.38;;;;;;;26.71;27.71;101040.59;5104517;27;20384;-48
2022/09/02 10:49:51;;;;;;;10.85;2.97;;;;;;;26.27;27.55;101047.88;5104897;28;20056;-49
2022/09/02 10:52:33;;;;;;;9.50;3.85;;;;;;;26.76;26.99;101045.25;5107853;28;20035;-49
2022/09/02 10:55:27;;;;;;;11.57;3.10;;;;;;;27.34;26.29;101046.44;5100620;28;20049;-51
2022/09/02 10:58:02;;;;;;;12.13;2.55;;;;;;;27.02;25.10;101043.66;5113840;27;20044;-50
2022/09/02 11:00:31;;;;;;;11.13;2.90;;;;;;;26.38;25.97;101041.53;5119763;27;20100;-52
2022/09/02 11:03:20;;;;;;;8.98;2.67;;;;;;;26.12;26.78;101032.19;5094571;28;20127;-52
2022/09/02 11:05:54;;;;;;;10.05;2.80;;;;;;;26.31;26.74;101035.47;5119489;28;20583;-49
2022/09/02 11:08:33;;;;;;;8.27;2.50;;;;;;;26.97;24.66;101024.53;5108598;28;20092;-49
2022/09/02 11:11:23;;;;;;;26.73;3.20;;;;;;;27.21;24.97;101038.66;5106772;28;20071;-51
2022/09/02 11:16:41;;;;;;;8.65;2.63;;;;;;;27.66;25.41;101025.72;5102379;28;20407;-52
2022/09/02 11:19:18;;;;;;;8.23;2.83;;;;;;;27.54;26.08;101024.00;5075215;28;20044;-50
2022/09/02 11:22:18;;;;;;;7.07;2.75;;;;;;;27.07;25.84;101021.06;5089143;28;20048;-51
2022/09/02 11:25:02;;;;;;;8.23;2.70;;;;;;;26.45;26.43;101014.97;5057482;28;20039;-50
2022/09/02 11:27:38;;;;;;;8.82;3.10;;;;;;;26.09;27.12;101014.50;5081998;28;20487;-49
2022/09/02 11:30:15;;;;;;;9.88;3.08;;;;;;;26.03;27.26;101010.06;5092434;28;20037;-52
2022/09/02 11:32:51;;;;;;;11.48;3.10;;;;;;;26.10;27.82;101009.88;5086004;28;20043;-52
2022/09/02 11:35:25;;;;;;;7.93;3.03;;;;;;;26.15;26.30;101002.63;5068705;28;20098;-52
2022/09/02 11:43:51;;;;;;;11.93;2.92;;;;;;;27.16;26.43;101004.03;5065766;27;20413;-52
2022/09/02 11:46:58;;;;;;;9.55;3.00;;;;;;;27.16;25.68;100993.16;5054890;28;20049;-50
2022/09/02 11:49:53;;;;;;;10.10;3.00;;;;;;;27.73;25.25;100991.69;5040933;28;20057;-50
2022/09/02 11:52:26;;;;;;;8.48;3.25;;;;;;;27.75;25.00;100988.72;5050549;28;20091;-53
2022/09/02 11:55:15;;;;;;;12.80;2.90;;;;;;;28.18;25.13;100981.34;5042935;28;20556;-49
2022/09/02 11:57:42;;;;;;;7.88;2.90;;;;;;;28.15;23.98;100987.31;5060753;28;20056;-53
2022/09/02 12:00:26;;;;;;;9.40;3.17;;;;;;;28.11;23.65;100988.94;5045865;28;20447;-52
2022/09/02 12:03:07;;;;;;;9.60;2.70;;;;;;;27.83;24.10;100984.66;5061586;28;20061;-51
2022/09/02 12:05:46;;;;;;;8.93;2.80;;;;;;;28.09;23.95;100981.03;5047727;28;20433;-49
2022/09/02 12:17:02;;;;;;;9.55;3.10;;;;;;;28.80;24.15;100979.63;5088612;27;20376;-52
2022/09/02 12:24:55;;;;;;;11.82;3.00;;;;;;;28.78;23.85;100967.34;5106851;27;20951;-47
2022/09/02 12:27:25;;;;;;;9.85;3.13;;;;;;;28.20;24.42;100970.13;5091216;28;20036;-49
2022/09/02 12:29:52;;;;;;;11.32;3.35;;;;;;;28.11;24.00;100956.22;5097979;28;20064;-52
2022/09/02 12:32:52;;;;;;;9.82;2.75;;;;;;;28.40;23.52;100958.47;5095757;28;20050;-51